sensor_id;sensor_type;location;lat;lon;timestamp;temperature;humidity
6462;DHT22;3264;42.862;25.098;2023-07-13T00:00:19;19.00;99.90
6462;DHT22;3264;42.862;25.098;2023-07-13T00:02:48;19.00;99.90
6462;DHT22;3264;42.862;25.098;2023-07-13T00:05:18;18.90;99.90
6462;DHT22;3264;42.862;25.098;2023-07-13T00:07:47;18.90;99.90
6462;DHT22;3264;42.862;25.098;2023-07-13T00:10:15;18.90;99.90
6462;DHT22;3264;42.862;25.098;2023-07-13T00:12:45;18.80;99.90
6462;DHT22;3264;42.862;25.098;2023-07-13T00:15:19;18.80;99.90
6462;DHT22;3264;42.862;25.098;2023-07-13T00:17:51;18.80;99.90
6462;DHT22;3264;42.862;25.098;2023-07-13T00:20:22;18.80;99.90
6462;DHT22;3264;42.862;25.098;2023-07-13T00:22:51;18.80;99.90
6462;DHT22;3264;42.862;25.098;2023-07-13T00:25:20;18.70;99.90
6462;DHT22;3264;42.862;25.098;2023-07-13T00:27:50;18.70;99.90
6462;DHT22;3264;42.862;25.098;2023-07-13T00:30:24;18.70;99.90
6462;DHT22;3264;42.862;25.098;2023-07-13T00:32:52;18.70;99.90
6462;DHT22;3264;42.862;25.098;2023-07-13T00:35:20;18.70;99.90
6462;DHT22;3264;42.862;25.098;2023-07-13T00:37:48;18.70;99.90
6462;DHT22;3264;42.862;25.098;2023-07-13T00:40:21;18.70;99.90
6462;DHT22;3264;42.862;25.098;2023-07-13T00:42:52;18.70;99.90
6462;DHT22;3264;42.862;25.098;2023-07-13T00:48:29;18.60;99.90
6462;DHT22;3264;42.862;25.098;2023-07-13T00:51:11;18.60;99.90
6462;DHT22;3264;42.862;25.098;2023-07-13T00:53:39;18.60;99.90
6462;DHT22;3264;42.862;25.098;2023-07-13T00:56:17;18.50;99.90
6462;DHT22;3264;42.862;25.098;2023-07-13T00:58:45;18.40;99.90
6462;DHT22;3264;42.862;25.098;2023-07-13T01:01:15;18.50;99.90
6462;DHT22;3264;42.862;25.098;2023-07-13T01:03:49;18.40;99.90
6462;DHT22;3264;42.862;25.098;2023-07-13T01:06:18;18.40;99.90
6462;DHT22;3264;42.862;25.098;2023-07-13T01:08:51;18.40;99.90
6462;DHT22;3264;42.862;25.098;2023-07-13T01:11:25;18.40;99.90
6462;DHT22;3264;42.862;25.098;2023-07-13T01:13:56;18.50;99.90
6462;DHT22;3264;42.862;25.098;2023-07-13T01:16:26;18.50;99.90
6462;DHT22;3264;42.862;25.098;2023-07-13T01:19:00;18.50;99.90
6462;DHT22;3264;42.862;25.098;2023-07-13T01:21:36;18.40;99.90
6462;DHT22;3264;42.862;25.098;2023-07-13T01:24:09;18.40;99.90
6462;DHT22;3264;42.862;25.098;2023-07-13T01:26:40;18.30;99.90
6462;DHT22;3264;42.862;25.098;2023-07-13T01:29:10;18.40;99.90
6462;DHT22;3264;42.862;25.098;2023-07-13T01:31:38;18.40;99.90
6462;DHT22;3264;42.862;25.098;2023-07-13T01:34:06;18.40;99.90
6462;DHT22;3264;42.862;25.098;2023-07-13T01:36:37;18.40;99.90
6462;DHT22;3264;42.862;25.098;2023-07-13T01:39:10;18.30;99.90
6462;DHT22;3264;42.862;25.098;2023-07-13T01:41:37;18.20;99.90
6462;DHT22;3264;42.862;25.098;2023-07-13T01:44:05;18.30;99.90
6462;DHT22;3264;42.862;25.098;2023-07-13T01:46:33;18.20;99.90
6462;DHT22;3264;42.862;25.098;2023-07-13T01:49:01;18.20;99.90
6462;DHT22;3264;42.862;25.098;2023-07-13T01:51:28;18.20;99.90
6462;DHT22;3264;42.862;25.098;2023-07-13T01:54:04;18.20;99.90
6462;DHT22;3264;42.862;25.098;2023-07-13T01:56:34;18.10;99.90
6462;DHT22;3264;42.862;25.098;2023-07-13T01:59:06;18.10;99.90
6462;DHT22;3264;42.862;25.098;2023-07-13T02:01:33;18.10;99.90
6462;DHT22;3264;42.862;25.098;2023-07-13T02:06:51;18.20;99.90
6462;DHT22;3264;42.862;25.098;2023-07-13T02:09:21;18.10;99.90
6462;DHT22;3264;42.862;25.098;2023-07-13T02:11:50;18.10;99.90
6462;DHT22;3264;42.862;25.098;2023-07-13T02:14:17;18.10;99.90
6462;DHT22;3264;42.862;25.098;2023-07-13T02:16:45;18.00;99.90
6462;DHT22;3264;42.862;25.098;2023-07-13T02:19:15;18.00;99.90
6462;DHT22;3264;42.862;25.098;2023-07-13T02:21:44;18.00;99.90
6462;DHT22;3264;42.862;25.098;2023-07-13T02:24:12;18.00;99.90
6462;DHT22;3264;42.862;25.098;2023-07-13T02:26:46;18.00;99.90
6462;DHT22;3264;42.862;25.098;2023-07-13T02:29:18;18.00;99.90
6462;DHT22;3264;42.862;25.098;2023-07-13T02:31:46;18.00;99.90
6462;DHT22;3264;42.862;25.098;2023-07-13T02:34:15;17.90;99.90
6462;DHT22;3264;42.862;25.098;2023-07-13T02:36:43;17.90;99.90
6462;DHT22;3264;42.862;25.098;2023-07-13T02:39:12;17.80;99.90
6462;DHT22;3264;42.862;25.098;2023-07-13T02:41:42;17.80;99.90
6462;DHT22;3264;42.862;25.098;2023-07-13T02:44:12;17.80;99.90
6462;DHT22;3264;42.862;25.098;2023-07-13T02:46:40;17.80;99.90
6462;DHT22;3264;42.862;25.098;2023-07-13T02:49:08;17.80;99.90
6462;DHT22;3264;42.862;25.098;2023-07-13T02:51:36;17.70;99.90
6462;DHT22;3264;42.862;25.098;2023-07-13T02:54:10;17.70;99.90
6462;DHT22;3264;42.862;25.098;2023-07-13T02:56:40;17.70;99.90
6462;DHT22;3264;42.862;25.098;2023-07-13T02:59:11;17.80;99.90
6462;DHT22;3264;42.862;25.098;2023-07-13T03:01:39;17.70;99.90
6462;DHT22;3264;42.862;25.098;2023-07-13T03:04:08;17.80;99.90
6462;DHT22;3264;42.862;25.098;2023-07-13T03:06:35;17.80;99.90
6462;DHT22;3264;42.862;25.098;2023-07-13T03:09:04;17.70;99.90
6462;DHT22;3264;42.862;25.098;2023-07-13T03:11:31;17.80;99.90
6462;DHT22;3264;42.862;25.098;2023-07-13T03:13:59;17.80;99.90
6462;DHT22;3264;42.862;25.098;2023-07-13T03:16:28;17.80;99.90
6462;DHT22;3264;42.862;25.098;2023-07-13T03:18:57;17.90;99.90
6462;DHT22;3264;42.862;25.098;2023-07-13T03:21:25;17.90;99.90
6462;DHT22;3264;42.862;25.098;2023-07-13T03:23:52;17.90;99.90
6462;DHT22;3264;42.862;25.098;2023-07-13T03:26:22;17.90;99.90
6462;DHT22;3264;42.862;25.098;2023-07-13T03:28:49;17.80;99.90
6462;DHT22;3264;42.862;25.098;2023-07-13T03:31:19;17.80;99.90
6462;DHT22;3264;42.862;25.098;2023-07-13T03:33:49;17.80;99.90
6462;DHT22;3264;42.862;25.098;2023-07-13T03:36:20;17.80;99.90
6462;DHT22;3264;42.862;25.098;2023-07-13T03:38:50;17.90;99.90
6462;DHT22;3264;42.862;25.098;2023-07-13T03:41:20;17.90;99.90
6462;DHT22;3264;42.862;25.098;2023-07-13T03:43:48;17.80;99.90
6462;DHT22;3264;42.862;25.098;2023-07-13T03:46:16;17.90;99.90
6462;DHT22;3264;42.862;25.098;2023-07-13T03:48:46;17.90;99.90
6462;DHT22;3264;42.862;25.098;2023-07-13T03:51:16;18.00;99.90
6462;DHT22;3264;42.862;25.098;2023-07-13T03:53:46;17.90;99.90
6462;DHT22;3264;42.862;25.098;2023-07-13T03:56:14;17.90;99.90
6462;DHT22;3264;42.862;25.098;2023-07-13T03:58:44;18.00;99.90
6462;DHT22;3264;42.862;25.098;2023-07-13T04:01:14;18.00;99.90
6462;DHT22;3264;42.862;25.098;2023-07-13T04:03:43;18.00;99.90
6462;DHT22;3264;42.862;25.098;2023-07-13T04:06:17;18.10;99.90
6462;DHT22;3264;42.862;25.098;2023-07-13T04:08:48;18.20;99.90
6462;DHT22;3264;42.862;25.098;2023-07-13T04:11:18;18.20;99.90
6462;DHT22;3264;42.862;25.098;2023-07-13T04:13:46;18.30;99.90
6462;DHT22;3264;42.862;25.098;2023-07-13T04:16:15;18.30;99.90
6462;DHT22;3264;42.862;25.098;2023-07-13T04:18:44;18.30;99.90
6462;DHT22;3264;42.862;25.098;2023-07-13T04:21:12;18.40;99.90
6462;DHT22;3264;42.862;25.098;2023-07-13T04:23:42;18.40;99.90
6462;DHT22;3264;42.862;25.098;2023-07-13T04:26:10;18.50;99.90
6462;DHT22;3264;42.862;25.098;2023-07-13T04:28:38;18.60;99.90
6462;DHT22;3264;42.862;25.098;2023-07-13T04:31:07;18.70;99.90
6462;DHT22;3264;42.862;25.098;2023-07-13T04:33:35;18.90;99.90
6462;DHT22;3264;42.862;25.098;2023-07-13T04:36:05;18.90;99.90
6462;DHT22;3264;42.862;25.098;2023-07-13T04:38:35;19.00;99.90
6462;DHT22;3264;42.862;25.098;2023-07-13T04:41:06;19.20;99.90
6462;DHT22;3264;42.862;25.098;2023-07-13T04:43:35;19.30;99.90
6462;DHT22;3264;42.862;25.098;2023-07-13T04:46:18;19.50;99.90
6462;DHT22;3264;42.862;25.098;2023-07-13T04:48:48;19.60;99.90
6462;DHT22;3264;42.862;25.098;2023-07-13T04:51:17;19.80;99.90
6462;DHT22;3264;42.862;25.098;2023-07-13T04:53:44;19.90;99.90
6462;DHT22;3264;42.862;25.098;2023-07-13T04:56:13;20.00;99.90
6462;DHT22;3264;42.862;25.098;2023-07-13T04:58:42;20.20;99.90
6462;DHT22;3264;42.862;25.098;2023-07-13T05:01:11;20.30;99.90
6462;DHT22;3264;42.862;25.098;2023-07-13T05:03:40;20.50;99.90
6462;DHT22;3264;42.862;25.098;2023-07-13T05:06:08;20.60;99.90
6462;DHT22;3264;42.862;25.098;2023-07-13T05:08:37;20.80;99.90
6462;DHT22;3264;42.862;25.098;2023-07-13T05:11:05;20.90;99.90
6462;DHT22;3264;42.862;25.098;2023-07-13T05:13:35;21.10;99.90
6462;DHT22;3264;42.862;25.098;2023-07-13T05:16:04;21.20;99.90
6462;DHT22;3264;42.862;25.098;2023-07-13T05:18:33;21.50;99.90
6462;DHT22;3264;42.862;25.098;2023-07-13T05:21:04;21.70;99.90
6462;DHT22;3264;42.862;25.098;2023-07-13T05:23:34;21.80;99.90
6462;DHT22;3264;42.862;25.098;2023-07-13T05:26:04;21.80;99.90
6462;DHT22;3264;42.862;25.098;2023-07-13T05:28:32;22.00;99.90
6462;DHT22;3264;42.862;25.098;2023-07-13T05:31:02;22.30;99.90
6462;DHT22;3264;42.862;25.098;2023-07-13T05:33:30;22.50;99.90
6462;DHT22;3264;42.862;25.098;2023-07-13T05:35:58;22.70;99.90
6462;DHT22;3264;42.862;25.098;2023-07-13T05:38:26;23.00;99.90
6462;DHT22;3264;42.862;25.098;2023-07-13T05:40:55;23.20;99.90
6462;DHT22;3264;42.862;25.098;2023-07-13T05:43:25;23.50;99.90
6462;DHT22;3264;42.862;25.098;2023-07-13T05:45:56;23.80;99.90
6462;DHT22;3264;42.862;25.098;2023-07-13T05:48:26;24.00;99.90
6462;DHT22;3264;42.862;25.098;2023-07-13T05:50:55;24.20;99.90
6462;DHT22;3264;42.862;25.098;2023-07-13T05:53:23;24.40;99.90
6462;DHT22;3264;42.862;25.098;2023-07-13T05:55:55;24.80;99.90
6462;DHT22;3264;42.862;25.098;2023-07-13T05:58:25;25.00;99.90
6462;DHT22;3264;42.862;25.098;2023-07-13T06:01:00;25.40;99.90
6462;DHT22;3264;42.862;25.098;2023-07-13T06:03:30;25.70;99.90
6462;DHT22;3264;42.862;25.098;2023-07-13T06:06:16;26.00;99.90
6462;DHT22;3264;42.862;25.098;2023-07-13T06:08:44;26.10;99.90
6462;DHT22;3264;42.862;25.098;2023-07-13T06:11:24;26.10;99.90
6462;DHT22;3264;42.862;25.098;2023-07-13T06:13:56;26.50;99.90
6462;DHT22;3264;42.862;25.098;2023-07-13T06:16:23;26.60;99.90
6462;DHT22;3264;42.862;25.098;2023-07-13T06:18:52;26.90;99.90
6462;DHT22;3264;42.862;25.098;2023-07-13T06:21:27;27.00;99.90
6462;DHT22;3264;42.862;25.098;2023-07-13T06:24:05;27.00;99.90
6462;DHT22;3264;42.862;25.098;2023-07-13T06:26:32;27.10;99.90
6462;DHT22;3264;42.862;25.098;2023-07-13T06:29:01;27.50;99.90
6462;DHT22;3264;42.862;25.098;2023-07-13T06:31:35;27.80;99.90
6462;DHT22;3264;42.862;25.098;2023-07-13T06:34:09;28.00;99.90
6462;DHT22;3264;42.862;25.098;2023-07-13T06:36:41;28.40;99.90
6462;DHT22;3264;42.862;25.098;2023-07-13T06:39:09;28.40;99.70
6462;DHT22;3264;42.862;25.098;2023-07-13T06:41:41;28.50;98.60
6462;DHT22;3264;42.862;25.098;2023-07-13T06:44:12;28.90;99.40
6462;DHT22;3264;42.862;25.098;2023-07-13T06:46:44;28.90;99.20
6462;DHT22;3264;42.862;25.098;2023-07-13T06:49:13;28.60;96.60
6462;DHT22;3264;42.862;25.098;2023-07-13T06:51:40;28.80;98.90
6462;DHT22;3264;42.862;25.098;2023-07-13T06:54:10;29.00;99.90
6462;DHT22;3264;42.862;25.098;2023-07-13T06:56:39;29.20;99.20
6462;DHT22;3264;42.862;25.098;2023-07-13T06:59:06;29.20;99.90
6462;DHT22;3264;42.862;25.098;2023-07-13T07:01:34;29.20;99.20
6462;DHT22;3264;42.862;25.098;2023-07-13T07:04:11;29.40;98.90
6462;DHT22;3264;42.862;25.098;2023-07-13T07:06:40;29.70;99.90
6462;DHT22;3264;42.862;25.098;2023-07-13T07:09:08;30.00;99.60
6462;DHT22;3264;42.862;25.098;2023-07-13T07:11:37;30.00;96.80
6462;DHT22;3264;42.862;25.098;2023-07-13T07:14:05;30.20;96.70
6462;DHT22;3264;42.862;25.098;2023-07-13T07:16:39;30.30;99.90
6462;DHT22;3264;42.862;25.098;2023-07-13T07:19:09;30.50;98.90
6462;DHT22;3264;42.862;25.098;2023-07-13T07:21:54;30.40;96.90
6462;DHT22;3264;42.862;25.098;2023-07-13T07:24:27;30.30;94.90
6462;DHT22;3264;42.862;25.098;2023-07-13T07:26:58;30.80;98.40
6462;DHT22;3264;42.862;25.098;2023-07-13T07:29:38;30.70;96.00
6462;DHT22;3264;42.862;25.098;2023-07-13T07:32:09;30.90;97.90
6462;DHT22;3264;42.862;25.098;2023-07-13T07:34:41;30.80;95.70
6462;DHT22;3264;42.862;25.098;2023-07-13T07:37:14;30.90;97.20
6462;DHT22;3264;42.862;25.098;2023-07-13T07:39:49;31.30;99.30
6462;DHT22;3264;42.862;25.098;2023-07-13T07:42:18;31.10;94.40
6462;DHT22;3264;42.862;25.098;2023-07-13T07:44:48;31.70;96.30
6462;DHT22;3264;42.862;25.098;2023-07-13T07:47:16;31.70;96.00
6462;DHT22;3264;42.862;25.098;2023-07-13T07:49:47;32.10;95.20
6462;DHT22;3264;42.862;25.098;2023-07-13T07:52:21;32.30;96.50
6462;DHT22;3264;42.862;25.098;2023-07-13T07:54:50;32.40;95.20
6462;DHT22;3264;42.862;25.098;2023-07-13T07:57:30;32.40;91.70
6462;DHT22;3264;42.862;25.098;2023-07-13T08:00:03;32.70;94.80
6462;DHT22;3264;42.862;25.098;2023-07-13T08:02:33;32.70;95.00
6462;DHT22;3264;42.862;25.098;2023-07-13T08:05:04;33.00;94.30
6462;DHT22;3264;42.862;25.098;2023-07-13T08:07:34;33.20;93.40
6462;DHT22;3264;42.862;25.098;2023-07-13T08:10:06;33.40;91.90
6462;DHT22;3264;42.862;25.098;2023-07-13T08:12:35;33.20;94.10
6462;DHT22;3264;42.862;25.098;2023-07-13T08:15:31;33.20;96.00
6462;DHT22;3264;42.862;25.098;2023-07-13T08:18:02;32.80;93.50
6462;DHT22;3264;42.862;25.098;2023-07-13T08:20:30;33.20;92.60
6462;DHT22;3264;42.862;25.098;2023-07-13T08:22:59;33.10;94.50
6462;DHT22;3264;42.862;25.098;2023-07-13T08:25:29;33.10;95.10
6462;DHT22;3264;42.862;25.098;2023-07-13T08:27:57;33.40;93.80
6462;DHT22;3264;42.862;25.098;2023-07-13T08:30:28;33.70;93.30
6462;DHT22;3264;42.862;25.098;2023-07-13T08:33:02;33.80;94.00
6462;DHT22;3264;42.862;25.098;2023-07-13T08:35:32;34.00;90.70
6462;DHT22;3264;42.862;25.098;2023-07-13T08:38:01;34.10;92.60
6462;DHT22;3264;42.862;25.098;2023-07-13T08:40:29;34.00;91.10
6462;DHT22;3264;42.862;25.098;2023-07-13T08:42:59;33.90;91.30
6462;DHT22;3264;42.862;25.098;2023-07-13T08:45:33;33.70;91.50
6462;DHT22;3264;42.862;25.098;2023-07-13T08:48:14;33.60;91.10
6462;DHT22;3264;42.862;25.098;2023-07-13T08:50:52;33.80;92.20
6462;DHT22;3264;42.862;25.098;2023-07-13T08:53:38;33.80;90.50
6462;DHT22;3264;42.862;25.098;2023-07-13T08:56:22;33.90;82.00
6462;DHT22;3264;42.862;25.098;2023-07-13T08:58:54;34.20;91.20
6462;DHT22;3264;42.862;25.098;2023-07-13T09:01:28;34.50;90.70
6462;DHT22;3264;42.862;25.098;2023-07-13T09:04:05;34.30;92.00
6462;DHT22;3264;42.862;25.098;2023-07-13T09:06:49;34.50;88.20
6462;DHT22;3264;42.862;25.098;2023-07-13T09:09:50;34.70;79.90
6462;DHT22;3264;42.862;25.098;2023-07-13T09:12:35;34.80;85.70
6462;DHT22;3264;42.862;25.098;2023-07-13T09:15:25;34.50;87.40
6462;DHT22;3264;42.862;25.098;2023-07-13T09:18:04;34.60;90.00
6462;DHT22;3264;42.862;25.098;2023-07-13T09:20:36;35.00;82.20
6462;DHT22;3264;42.862;25.098;2023-07-13T09:23:16;35.00;84.30
6462;DHT22;3264;42.862;25.098;2023-07-13T09:25:54;35.10;82.20
6462;DHT22;3264;42.862;25.098;2023-07-13T09:28:28;35.10;79.70
6462;DHT22;3264;42.862;25.098;2023-07-13T09:31:00;35.30;79.70
6462;DHT22;3264;42.862;25.098;2023-07-13T09:33:43;35.30;82.70
6462;DHT22;3264;42.862;25.098;2023-07-13T09:36:19;35.00;87.10
6462;DHT22;3264;42.862;25.098;2023-07-13T09:38:49;34.80;88.70
6462;DHT22;3264;42.862;25.098;2023-07-13T09:41:28;35.00;91.00
6462;DHT22;3264;42.862;25.098;2023-07-13T09:44:08;34.90;85.80
6462;DHT22;3264;42.862;25.098;2023-07-13T09:46:53;35.20;84.10
6462;DHT22;3264;42.862;25.098;2023-07-13T09:49:24;35.20;90.60
6462;DHT22;3264;42.862;25.098;2023-07-13T09:52:10;35.20;79.80
6462;DHT22;3264;42.862;25.098;2023-07-13T09:54:45;35.50;87.60
6462;DHT22;3264;42.862;25.098;2023-07-13T09:57:23;35.40;80.80
6462;DHT22;3264;42.862;25.098;2023-07-13T09:59:55;35.50;80.80
6462;DHT22;3264;42.862;25.098;2023-07-13T10:02:36;35.10;75.20
6462;DHT22;3264;42.862;25.098;2023-07-13T10:05:16;35.30;73.60
6462;DHT22;3264;42.862;25.098;2023-07-13T10:07:45;35.50;74.50
6462;DHT22;3264;42.862;25.098;2023-07-13T10:10:15;35.20;81.50
6462;DHT22;3264;42.862;25.098;2023-07-13T10:12:46;35.10;83.80
6462;DHT22;3264;42.862;25.098;2023-07-13T10:15:19;35.00;88.30
6462;DHT22;3264;42.862;25.098;2023-07-13T10:17:48;35.20;83.70
6462;DHT22;3264;42.862;25.098;2023-07-13T10:20:21;35.40;86.20
6462;DHT22;3264;42.862;25.098;2023-07-13T10:22:57;35.40;83.30
6462;DHT22;3264;42.862;25.098;2023-07-13T10:25:31;35.10;85.70
6462;DHT22;3264;42.862;25.098;2023-07-13T10:28:27;34.90;90.00
6462;DHT22;3264;42.862;25.098;2023-07-13T10:31:26;34.80;91.70
6462;DHT22;3264;42.862;25.098;2023-07-13T10:33:59;34.70;90.80
6462;DHT22;3264;42.862;25.098;2023-07-13T10:36:38;34.70;86.40
6462;DHT22;3264;42.862;25.098;2023-07-13T10:39:24;34.70;87.40
6462;DHT22;3264;42.862;25.098;2023-07-13T10:42:01;35.00;87.10
6462;DHT22;3264;42.862;25.098;2023-07-13T10:44:35;35.10;89.40
6462;DHT22;3264;42.862;25.098;2023-07-13T10:47:05;35.00;89.30
6462;DHT22;3264;42.862;25.098;2023-07-13T10:49:35;35.20;85.80
6462;DHT22;3264;42.862;25.098;2023-07-13T10:52:05;35.20;89.80
6462;DHT22;3264;42.862;25.098;2023-07-13T10:54:33;35.20;86.60
6462;DHT22;3264;42.862;25.098;2023-07-13T10:57:14;35.10;86.40
6462;DHT22;3264;42.862;25.098;2023-07-13T10:59:47;34.90;87.90
6462;DHT22;3264;42.862;25.098;2023-07-13T11:02:28;34.80;84.70
6462;DHT22;3264;42.862;25.098;2023-07-13T11:04:57;35.00;82.20
6462;DHT22;3264;42.862;25.098;2023-07-13T11:07:30;35.30;85.70
6462;DHT22;3264;42.862;25.098;2023-07-13T11:10:05;35.30;89.80
6462;DHT22;3264;42.862;25.098;2023-07-13T11:12:52;35.20;82.70
6462;DHT22;3264;42.862;25.098;2023-07-13T11:15:43;35.30;80.30
6462;DHT22;3264;42.862;25.098;2023-07-13T11:18:22;35.20;81.20
6462;DHT22;3264;42.862;25.098;2023-07-13T11:21:18;35.50;75.60
6462;DHT22;3264;42.862;25.098;2023-07-13T11:24:02;35.60;72.20
6462;DHT22;3264;42.862;25.098;2023-07-13T11:26:53;35.50;73.30
6462;DHT22;3264;42.862;25.098;2023-07-13T11:29:32;35.50;74.20
6462;DHT22;3264;42.862;25.098;2023-07-13T11:32:23;35.30;73.50
6462;DHT22;3264;42.862;25.098;2023-07-13T11:34:54;35.40;74.50
6462;DHT22;3264;42.862;25.098;2023-07-13T11:37:23;35.80;73.90
6462;DHT22;3264;42.862;25.098;2023-07-13T11:39:52;35.50;77.80
6462;DHT22;3264;42.862;25.098;2023-07-13T11:42:24;35.30;83.90
6462;DHT22;3264;42.862;25.098;2023-07-13T11:44:53;35.20;83.70
6462;DHT22;3264;42.862;25.098;2023-07-13T11:47:32;35.20;73.60
6462;DHT22;3264;42.862;25.098;2023-07-13T11:50:00;35.20;74.90
6462;DHT22;3264;42.862;25.098;2023-07-13T11:52:35;35.30;73.30
6462;DHT22;3264;42.862;25.098;2023-07-13T11:55:33;35.50;72.00
6462;DHT22;3264;42.862;25.098;2023-07-13T11:58:14;35.60;77.20
6462;DHT22;3264;42.862;25.098;2023-07-13T12:00:45;35.40;82.10
6462;DHT22;3264;42.862;25.098;2023-07-13T12:03:22;35.40;77.10
6462;DHT22;3264;42.862;25.098;2023-07-13T12:06:00;35.40;73.50
6462;DHT22;3264;42.862;25.098;2023-07-13T12:08:31;35.70;72.00
6462;DHT22;3264;42.862;25.098;2023-07-13T12:11:12;35.60;74.90
6462;DHT22;3264;42.862;25.098;2023-07-13T12:13:45;35.60;72.00
6462;DHT22;3264;42.862;25.098;2023-07-13T12:16:17;35.70;82.60
6462;DHT22;3264;42.862;25.098;2023-07-13T12:18:52;35.50;75.30
6462;DHT22;3264;42.862;25.098;2023-07-13T12:21:27;35.60;83.10
6462;DHT22;3264;42.862;25.098;2023-07-13T12:24:03;35.70;80.40
6462;DHT22;3264;42.862;25.098;2023-07-13T12:26:40;35.20;72.80
6462;DHT22;3264;42.862;25.098;2023-07-13T12:29:17;35.40;80.30
6462;DHT22;3264;42.862;25.098;2023-07-13T12:32:01;35.50;75.00
6462;DHT22;3264;42.862;25.098;2023-07-13T12:34:32;35.60;79.40
6462;DHT22;3264;42.862;25.098;2023-07-13T12:37:11;35.70;79.90
6462;DHT22;3264;42.862;25.098;2023-07-13T12:39:49;35.60;76.30
6462;DHT22;3264;42.862;25.098;2023-07-13T12:42:27;35.70;81.10
6462;DHT22;3264;42.862;25.098;2023-07-13T12:45:01;35.50;82.70
6462;DHT22;3264;42.862;25.098;2023-07-13T12:47:31;35.30;75.70
6462;DHT22;3264;42.862;25.098;2023-07-13T12:50:16;35.10;74.90
6462;DHT22;3264;42.862;25.098;2023-07-13T12:52:51;34.80;78.70
6462;DHT22;3264;42.862;25.098;2023-07-13T12:55:49;35.00;79.00
6462;DHT22;3264;42.862;25.098;2023-07-13T12:58:29;34.90;76.00
6462;DHT22;3264;42.862;25.098;2023-07-13T13:01:03;35.20;75.30
6462;DHT22;3264;42.862;25.098;2023-07-13T13:03:33;35.20;85.60
6462;DHT22;3264;42.862;25.098;2023-07-13T13:09:02;35.20;88.00
6462;DHT22;3264;42.862;25.098;2023-07-13T13:11:32;34.80;91.00
6462;DHT22;3264;42.862;25.098;2023-07-13T13:14:00;34.50;91.20
6462;DHT22;3264;42.862;25.098;2023-07-13T13:16:40;34.80;90.60
6462;DHT22;3264;42.862;25.098;2023-07-13T13:19:17;35.10;87.70
6462;DHT22;3264;42.862;25.098;2023-07-13T13:21:45;35.10;91.30
6462;DHT22;3264;42.862;25.098;2023-07-13T13:24:22;35.00;92.60
6462;DHT22;3264;42.862;25.098;2023-07-13T13:26:52;35.00;92.60
6462;DHT22;3264;42.862;25.098;2023-07-13T13:29:24;34.70;94.30
6462;DHT22;3264;42.862;25.098;2023-07-13T13:31:57;34.60;92.00
6462;DHT22;3264;42.862;25.098;2023-07-13T13:34:25;34.40;94.50
6462;DHT22;3264;42.862;25.098;2023-07-13T13:36:56;34.60;94.00
6462;DHT22;3264;42.862;25.098;2023-07-13T13:39:42;34.40;95.00
6462;DHT22;3264;42.862;25.098;2023-07-13T13:42:10;34.50;95.00
6462;DHT22;3264;42.862;25.098;2023-07-13T13:44:40;34.40;95.10
6462;DHT22;3264;42.862;25.098;2023-07-13T13:47:24;34.20;96.20
6462;DHT22;3264;42.862;25.098;2023-07-13T13:49:59;34.30;95.70
6462;DHT22;3264;42.862;25.098;2023-07-13T13:52:27;34.40;95.70
6462;DHT22;3264;42.862;25.098;2023-07-13T13:55:04;34.40;96.10
6462;DHT22;3264;42.862;25.098;2023-07-13T13:57:35;34.20;96.20
6462;DHT22;3264;42.862;25.098;2023-07-13T14:00:20;34.30;96.20
6462;DHT22;3264;42.862;25.098;2023-07-13T14:02:53;34.20;94.40
6462;DHT22;3264;42.862;25.098;2023-07-13T14:05:29;34.30;95.50
6462;DHT22;3264;42.862;25.098;2023-07-13T14:08:03;34.20;95.70
6462;DHT22;3264;42.862;25.098;2023-07-13T14:10:38;34.00;96.90
6462;DHT22;3264;42.862;25.098;2023-07-13T14:13:18;33.90;96.80
6462;DHT22;3264;42.862;25.098;2023-07-13T14:15:50;33.80;97.90
6462;DHT22;3264;42.862;25.098;2023-07-13T14:18:24;33.80;97.10
6462;DHT22;3264;42.862;25.098;2023-07-13T14:20:55;33.90;96.70
6462;DHT22;3264;42.862;25.098;2023-07-13T14:23:25;33.80;95.50
6462;DHT22;3264;42.862;25.098;2023-07-13T14:25:57;33.90;92.90
6462;DHT22;3264;42.862;25.098;2023-07-13T14:28:35;33.90;94.40
6462;DHT22;3264;42.862;25.098;2023-07-13T14:31:04;33.50;94.60
6462;DHT22;3264;42.862;25.098;2023-07-13T14:33:32;33.40;95.20
6462;DHT22;3264;42.862;25.098;2023-07-13T14:36:18;33.40;96.70
6462;DHT22;3264;42.862;25.098;2023-07-13T14:38:51;33.20;95.70
6462;DHT22;3264;42.862;25.098;2023-07-13T14:41:24;33.20;98.80
6462;DHT22;3264;42.862;25.098;2023-07-13T14:43:52;33.30;98.80
6462;DHT22;3264;42.862;25.098;2023-07-13T14:46:29;33.20;98.90
6462;DHT22;3264;42.862;25.098;2023-07-13T14:49:04;33.20;97.80
6462;DHT22;3264;42.862;25.098;2023-07-13T14:51:36;33.20;98.40
6462;DHT22;3264;42.862;25.098;2023-07-13T14:54:08;32.90;98.40
6462;DHT22;3264;42.862;25.098;2023-07-13T14:56:39;32.80;99.20
6462;DHT22;3264;42.862;25.098;2023-07-13T14:59:07;32.70;99.50
6462;DHT22;3264;42.862;25.098;2023-07-13T15:01:35;32.60;99.90
6462;DHT22;3264;42.862;25.098;2023-07-13T15:04:09;32.50;99.90
6462;DHT22;3264;42.862;25.098;2023-07-13T15:06:57;32.50;99.60
6462;DHT22;3264;42.862;25.098;2023-07-13T15:09:29;32.40;99.90
6462;DHT22;3264;42.862;25.098;2023-07-13T15:12:00;32.40;99.90
6462;DHT22;3264;42.862;25.098;2023-07-13T15:14:31;32.40;99.90
6462;DHT22;3264;42.862;25.098;2023-07-13T15:17:24;32.30;99.90
6462;DHT22;3264;42.862;25.098;2023-07-13T15:19:55;32.30;99.90
6462;DHT22;3264;42.862;25.098;2023-07-13T15:22:25;32.30;99.90
6462;DHT22;3264;42.862;25.098;2023-07-13T15:24:59;32.20;99.90
6462;DHT22;3264;42.862;25.098;2023-07-13T15:27:37;32.00;99.90
6462;DHT22;3264;42.862;25.098;2023-07-13T15:30:06;31.90;99.90
6462;DHT22;3264;42.862;25.098;2023-07-13T15:32:40;31.60;99.90
6462;DHT22;3264;42.862;25.098;2023-07-13T15:35:14;31.70;99.90
6462;DHT22;3264;42.862;25.098;2023-07-13T15:37:46;31.70;99.90
6462;DHT22;3264;42.862;25.098;2023-07-13T15:40:18;31.60;99.90
6462;DHT22;3264;42.862;25.098;2023-07-13T15:42:52;31.50;99.90
6462;DHT22;3264;42.862;25.098;2023-07-13T15:45:23;31.40;99.90
6462;DHT22;3264;42.862;25.098;2023-07-13T15:47:51;31.30;99.90
6462;DHT22;3264;42.862;25.098;2023-07-13T15:50:29;31.30;99.90
6462;DHT22;3264;42.862;25.098;2023-07-13T15:53:09;31.10;99.90
6462;DHT22;3264;42.862;25.098;2023-07-13T15:55:40;31.00;99.90
6462;DHT22;3264;42.862;25.098;2023-07-13T15:58:14;31.00;99.90
6462;DHT22;3264;42.862;25.098;2023-07-13T16:00:48;30.90;99.90
6462;DHT22;3264;42.862;25.098;2023-07-13T16:03:17;30.60;99.90
6462;DHT22;3264;42.862;25.098;2023-07-13T16:05:48;30.50;99.90
6462;DHT22;3264;42.862;25.098;2023-07-13T16:08:23;30.30;99.90
6462;DHT22;3264;42.862;25.098;2023-07-13T16:10:56;30.20;99.90
6462;DHT22;3264;42.862;25.098;2023-07-13T16:13:29;30.10;99.90
6462;DHT22;3264;42.862;25.098;2023-07-13T16:15:57;30.20;99.90
6462;DHT22;3264;42.862;25.098;2023-07-13T16:18:25;30.10;99.90
6462;DHT22;3264;42.862;25.098;2023-07-13T16:20:57;30.10;99.90
6462;DHT22;3264;42.862;25.098;2023-07-13T16:23:25;30.00;99.90
6462;DHT22;3264;42.862;25.098;2023-07-13T16:25:54;29.90;99.90
6462;DHT22;3264;42.862;25.098;2023-07-13T16:28:24;29.80;99.90